Temp     Hi    Low   Out    Dew  Wind  Wind   Wind    Hi    Hi   Wind   Heat    THW   THSW                Rain  Solar   Solar Hi Solar   UV    UV    Hi     Heat    Cool    In     In    In     In           Wind  Wind    ISS   Arc.
  Date    Time     Out   Temp   Temp   Hum    Pt. Speed   Dir    Run Speed   Dir  Chill  Index  Index  Index   Bar    Rain  Rate   Rad.  Energy    Rad.  Index  Dose   UV     D-D     D-D    Temp   Hum    Dew   Heat     ET   Samp   Tx   Recept  Int.
---------------------------------------------------------------------------------------------------------------------------------------------------------------------------------------------------------------------------------------------------------
 6/26/17 12:30a   79.6   79.6   77.7    11   20.4   8.0    NW   4.00  23.0   WNW   79.2   75.8   75.4   70.3  30.174  0.00  0.00     0     0.00      0     0.0  0.00   0.0   0.000   0.304   77.0    32   44.9   75.9   0.000   670    2    100.0   30 
 6/26/17  1:00a   75.4   79.7   75.4    16   26.1   2.0    NW   1.00  19.0     W   75.4   72.8   72.8   67.5  30.174  0.00  0.00     0     0.00      0     0.0  0.00   0.0   0.000   0.217   77.3    32   45.1   76.1   0.007   684    2    100.0   30 
 6/26/17  1:30a   70.4   75.3   70.4    19   26.1   0.0   ---   0.00   0.0   ---   70.4   65.9   65.9   60.6  30.171  0.00  0.00     0     0.00      0     0.0  0.00   0.0   0.000   0.113   77.7    33   46.3   76.4   0.000   682    2    100.0   30 
 6/26/17  2:00a   71.7   71.7   69.1    23   31.9   0.0    NW   0.00   3.0    NW   71.7   68.0   68.0   63.0  30.169  0.00  0.00     0     0.00      0     0.0  0.00   0.0   0.000   0.140   77.7    33   46.3   76.4   0.003   674    2    100.0   30 
 6/26/17  2:30a   73.5   74.0   71.7    32   41.8   3.0     W   1.50  11.0     W   73.5   71.7   71.7   67.1  30.159  0.00  0.00     0     0.00      0     0.0  0.00   0.0   0.000   0.177   76.6    33   45.3   75.4   0.000   682    2    100.0   30 
 6/26/17  3:00a   71.8   73.5   71.8    46   49.9   3.0   WSW   1.50  13.0     W   71.8   70.4   70.4   66.2  30.154  0.00  0.00     0     0.00      0     0.0  0.00   0.0   0.000   0.142   76.8    33   45.5   75.7   0.004   677    2    100.0   30 
 6/26/17  3:30a   71.5   72.4   71.5    55   54.5   2.0     W   1.00  10.0     W   71.5   70.8   70.8   66.8  30.150  0.00  0.00     0     0.00      0     0.0  0.00   0.0   0.000   0.135   77.0    34   46.5   76.0   0.000   679    2    100.0   30 
 6/26/17  4:00a   70.3   71.5   70.2    59   55.3   2.0     W   1.00   7.0     W   70.3   69.5   69.5   65.6  30.142  0.00  0.00     0     0.00      0     0.0  0.00   0.0   0.000   0.110   77.0    36   48.0   76.0   0.002   686    2    100.0   30 
 6/26/17  4:30a   70.4   71.2   70.2    59   55.4   4.0     W   2.00  16.0     W   70.4   69.6   69.6   65.7  30.144  0.00  0.00     0     0.00      0     0.0  0.00   0.0   0.000   0.113   77.2    38   49.6   76.3   0.000   671    2    100.0   30 
 6/26/17  5:00a   69.4   71.3   69.4    59   54.4   7.0     W   3.50  19.0     W   69.4   68.6   68.6   64.7  30.143  0.00  0.00     0     0.00      0     0.0  0.00   0.0   0.000   0.092   77.2    41   51.7   76.4   0.003   683    2    100.0   30 
 6/26/17  5:30a   69.1   69.4   68.5    59   54.2   5.0   WSW   2.50  13.0   WSW   69.1   68.4   68.4   64.4  30.144  0.00  0.00     0     0.00      0     0.0  0.00   0.0   0.000   0.085   77.0    41   51.5   76.3   0.000   683    2    100.0   30 
 6/26/17  6:00a   68.1   69.7   68.1    57   52.3   4.0     W   2.00  13.0     W   68.1   67.5   67.5   63.5  30.151  0.00  0.00     2     0.09      9     0.0  0.00   0.0   0.000   0.065   77.0    41   51.5   76.3   0.002   672    2    100.0   30 
 6/26/17  6:30a   67.7   68.1   67.3    58   52.4   0.0   ---   0.00   0.0   ---   67.7   67.2   67.2   63.4  30.154  0.00  0.00    12     0.52     16     0.0  0.00   0.0   0.000   0.056   77.0    41   51.5   76.3   0.000   683    2    100.0   30 
 6/26/17  7:00a   68.0   68.2   67.8    55   51.2   0.0   ---   0.00   0.0   ---   68.0   67.2   67.2   65.6  30.156  0.00  0.00    20     0.86     25     0.0  0.00   0.0   0.000   0.063   77.0    40   50.8   76.2   0.001   680    2    100.0   30 
 6/26/17  7:30a   70.2   70.2   68.0    53   52.3   0.0     W   0.00   3.0     W   70.2   68.8   68.8   69.8  30.160  0.00  0.00    83     3.57    243     0.0  0.00   0.5   0.000   0.108   77.2    40   51.0   76.4   0.000   675    2    100.0   30 
 6/26/17  8:00a   71.6   71.6   70.2    50   52.0   1.0     W   0.50   6.0     W   71.6   70.5   70.5   77.4  30.161  0.00  0.00   292    12.56    339     0.7  0.11   1.0   0.000   0.137   77.2    40   51.0   76.4   0.005   684    2    100.0   30 
 6/26/17  8:30a   74.0   74.0   71.6    44   50.7   3.0    NW   1.50   8.0   WNW   74.0   73.3   73.3   81.5  30.162  0.00  0.00   390    16.77    441     1.4  0.22   1.8   0.000   0.188   77.5    39   50.6   76.6   0.000   677    2    100.0   30 
 6/26/17  9:00a   75.7   75.7   74.1    40   49.7   7.0   NNW   3.50  14.0   NNW   75.7   74.8   74.8   83.6  30.160  0.00  0.00   492    21.16    540     2.4  0.39   2.9   0.000   0.223   77.7    37   49.3   76.6   0.013   681    2    100.0   30 
 6/26/17  9:30a   76.6   76.6   75.7    40   50.5   7.0   NNW   3.50  15.0   NNW   76.6   75.8   75.8   85.1  30.159  0.00  0.00   583    25.07    628     3.5  0.56   4.1   0.000   0.242   78.0    37   49.6   76.9   0.000   682    2    100.0   30 
 6/26/17 10:00a   78.7   78.7   76.6    38   51.0  10.0   NNW   5.00  20.0   NNW   77.0   77.7   76.0   84.5  30.155  0.00  0.00   673    28.94    712     4.8  0.77   5.5   0.000   0.285   78.4    37   50.0   77.3   0.021   671    2    100.0   30 
 6/26/17 10:30a   79.2   79.2   78.6    38   51.4  11.0   NNW   5.50  22.0   NNW   77.2   78.2   76.2   84.6  30.159  0.00  0.00   750    32.25    784     6.1  0.98   6.8   0.000   0.296   79.0    37   50.5   78.0   0.000   681    2    100.0   30 
 6/26/17 11:00a   80.2   80.2   79.2    37   51.6  12.0   NNW   6.00  24.0     N   78.0   78.9   76.7   84.8  30.161  0.00  0.00   818    35.18    849     7.5  1.21   8.1   0.000   0.317   79.2    37   50.7   78.1   0.027   680    2    100.0   30 
 6/26/17 11:30a   80.9   80.9   79.9    33   49.1  15.0   NNW   7.50  25.0   NNW   78.1   79.2   76.4   83.7  30.159  0.00  0.00   875    37.63    898     8.7  1.40   9.2   0.000   0.331   79.9    36   50.6   78.5   0.000   674    2    100.0   30 
 6/26/17 12:00p   81.4   81.4   80.4    34   50.3  15.0   NNW   7.50  27.0   NNW   78.7   79.9   77.2   84.4  30.162  0.00  0.00   921    39.61    937     9.7  1.56  10.0   0.000   0.342   80.5    35   50.3   79.0   0.032   686    2    100.0   30 
 6/26/17 12:30p   82.7   83.2   81.2    32   49.8  14.0   NNW   7.00  25.0   NNW   80.4   81.0   78.7   85.8  30.160  0.00  0.00   954    41.03    967    10.4  1.67  10.6   0.000   0.369   81.0    33   49.2   79.3   0.000   674    2    100.0   30 
 6/26/17  1:00p   83.4   83.6   82.3    26   44.9  13.0   NNW   6.50  23.0   NNW   81.5   81.0   79.1   85.9  30.152  0.00  0.00   972    41.80    981    10.8  1.74  10.9   0.000   0.383   81.6    31   48.0   79.8   0.035   678    2    100.0   30 
 6/26/17  1:30p   84.4   84.7   83.4    24   43.7  14.0   NNW   7.00  25.0    NW   82.5   81.8   79.9   86.1  30.157  0.00  0.00   973    41.84    979    10.9  1.75  11.0   0.000   0.404   82.3    28   45.9   80.1   0.000   683    2    100.0   30 
 6/26/17  2:00p   84.8   85.3   84.4    21   40.5  14.0   NNW   7.00  28.0    NW   83.0   81.8   80.0   85.7  30.151  0.00  0.00   957    41.16    969    10.4  1.67  10.7   0.000   0.413   82.7    27   45.3   80.4   0.037   671    2    100.0   30 
 6/26/17  2:30p   85.5   86.0   84.8    16   34.2  15.0   NNW   7.50  29.0   NNW   83.6   82.2   80.3   86.0  30.153  0.00  0.00   935    40.21    949     9.7  1.56  10.1   0.000   0.427   83.1    24   42.6   80.4   0.000   685    2    100.0   30 
 6/26/17  3:00p   85.8   86.5   85.5    16   34.4  16.0   NNW   8.00  28.0     N   83.8   82.5   80.5   86.3  30.152  0.00  0.00   895    38.49    919     8.6  1.38   9.2   0.000   0.433   83.3    22   40.5   80.5   0.038   681    2    100.0   30 
 6/26/17  3:30p   86.6   87.0   85.8    17   36.6  15.0   NNW   7.50  27.0    NW   85.0   83.2   81.6   87.9  30.150  0.00  0.00   839    36.08    868     7.3  1.17   8.0   0.000   0.450   83.7    23   42.0   81.0   0.000   676    2    100.0   30 
 6/26/17  4:00p   86.5   86.8   85.9    22   43.1  15.0   NNW   7.50  27.0     N   84.9   83.5   81.9   88.6  30.148  0.00  0.00   769    33.07    807     5.9  0.95   6.6   0.000   0.448   84.1    24   43.4   81.5   0.035   683    2    100.0   30 
 6/26/17  4:30p   86.2   86.7   85.9    21   41.7  15.0   NNW   7.50  27.0    NW   84.5   83.1   81.4   88.2  30.137  0.00  0.00   689    29.63    728     4.5  0.72   5.1   0.000   0.442   84.5    24   43.7   81.8   0.000   676    2    100.0   30 
 6/26/17  5:00p   86.4   86.5   85.4    20   40.6  13.0   NNW   6.50  29.0   NNW   85.1   83.2   81.9   89.2  30.132  0.00  0.00   604    25.98    643     3.3  0.53   3.9   0.000   0.446   85.1    23   43.1   82.3   0.029   683    2    100.0   30 
 6/26/17  5:30p   85.5   86.5   85.5    20   39.8  12.0   NNW   6.00  23.0    NW   84.2   82.3   81.0   88.5  30.125  0.00  0.00   512    22.02    557     2.2  0.35   2.7   0.000   0.427   85.3    23   43.3   82.5   0.000   683    2    100.0   30 
 6/26/17  6:00p   85.2   85.6   85.1    22   42.1   9.0   WNW   4.50  19.0   NNW   84.6   82.2   81.6   89.5  30.120  0.00  0.00   415    17.85    462     1.3  0.21   1.7   0.000   0.421   85.3    23   43.3   82.5   0.022   671    2    100.0   30 
 6/26/17  6:30p   84.6   85.2   84.5    22   41.6   8.0   WNW   4.00  19.0   WNW   84.4   81.7   81.5   88.7  30.121  0.00  0.00   320    13.76    367     0.5  0.08   0.9   0.000   0.408   85.3    23   43.3   82.5   0.000   684    2    100.0   30 
 6/26/17  7:00p   83.4   84.9   83.3    21   39.4   6.0   WNW   3.00  23.0     W   83.4   80.5   80.5   85.7  30.124  0.00  0.00   223     9.59    271     0.0  0.00   0.0   0.000   0.383   85.1    22   42.0   82.1   0.013   679    2    100.0   30 
 6/26/17  7:30p   81.2   83.5   81.2    18   33.6   9.0   WNW   4.50  20.0   WNW   80.2   77.9   76.9   74.4  30.127  0.00  0.00   105     4.52    167     0.0  0.00   0.0   0.000   0.337   84.7    20   39.2   81.6   0.000   673    2    100.0   30 
 6/26/17  8:00p   79.5   81.2   79.4    19   33.6   9.0   WNW   4.50  19.0     W   78.4   76.4   75.3   71.0  30.125  0.00  0.00    11     0.47     14     0.0  0.00   0.0   0.000   0.302   83.7    19   37.0   80.6   0.009   685    2    100.0   30 
 6/26/17  8:30p   78.7   79.6   78.7    19   33.0  11.0   WNW   5.50  24.0   WNW   76.6   75.9   73.8   69.6  30.124  0.00  0.00     1     0.04      7     0.0  0.00   0.0   0.000   0.285   83.1    21   39.1   80.2   0.000   676    2    100.0   30 
 6/26/17  9:00p   77.8   78.7   77.8    20   33.5  12.0   WNW   6.00  21.0   WNW   75.3   75.8   73.3   69.3  30.123  0.00  0.00     0     0.00      0     0.0  0.00   0.0   0.000   0.267   82.7    20   37.5   79.7   0.010   679    2    100.0   30 
 6/26/17  9:30p   76.7   77.8   76.7    22   35.0   8.0   WNW   4.00  19.0   WNW   76.2   75.2   74.7   70.1  30.132  0.00  0.00     0     0.00      0     0.0  0.00   0.0   0.000   0.244   82.3    21   38.4   79.3   0.000   682    2    100.0   30 
 6/26/17 10:00p   77.5   77.5   76.7    21   34.5  12.0   WNW   6.00  25.0   WNW   75.0   75.8   73.3   69.3  30.134  0.00  0.00     0     0.00      0     0.0  0.00   0.0   0.000   0.260   82.0    21   38.2   79.0   0.009   671    2    100.0   30 
 6/26/17 10:30p   76.3   77.5   76.3    22   34.6  10.0   WNW   5.00  25.0   WNW   74.4   74.6   72.7   68.4  30.131  0.00  0.00     0     0.00      0     0.0  0.00   0.0   0.000   0.235   81.6    21   37.9   78.6   0.000   684    2    100.0   30 
 6/26/17 11:00p   75.8   76.4   75.7    24   36.4   9.0   WNW   4.50  21.0   WNW   74.5   74.0   72.7   68.3  30.134  0.00  0.00     0     0.00      0     0.0  0.00   0.0   0.000   0.225   81.2    22   38.7   78.3   0.009   680    2    100.0   30 
 6/26/17 11:30p   75.7   76.0   75.6    23   35.3  11.0   WNW   5.50  21.0     W   73.4   73.8   71.5   67.4  30.137  0.00  0.00     0     0.00      0     0.0  0.00   0.0   0.000   0.223   80.6    22   38.2   77.7   0.000   672    2    100.0   30 
 6/27/17 12:00a   74.9   75.7   74.9    25   36.7   9.0     W   4.50  19.0   WNW   73.6   72.8   71.5   67.1  30.134  0.00  0.00     0     0.00      0     0.0  0.00   0.0   0.000   0.206   80.5    24   40.4   77.9   0.008   685    2    100.0   30 
 6/27/17 12:30a   74.4   74.9   74.1    26   37.3   8.0   WNW   4.00  18.0   WNW   73.9   72.3   71.8   67.3  30.133  0.00  0.00     0     0.00      0     0.0  0.00   0.0   0.000   0.196   80.3    24   40.2   77.7   0.000   677    2    100.0   30 
 6/27/17  1:00a   71.2   74.4   71.0    34   41.4   5.0     W   2.50  14.0     W   71.2   68.4   68.4   63.8  30.131  0.00  0.00     0     0.00      0     0.0  0.00   0.0   0.000   0.129   80.1    25   41.1   77.6   0.006   676    2    100.0   30 
 6/27/17  1:30a   70.2   71.3   70.2    37   42.7   5.0     W   2.50  16.0   WNW   70.2   67.3   67.3   62.8  30.124  0.00  0.00     0     0.00      0     0.0  0.00   0.0   0.000   0.108   79.9    26   41.9   77.5   0.000   682    2    100.0   30 
 6/27/17  2:00a   69.8   70.3   69.7    38   43.0   5.0   WSW   2.50  14.0     W   69.8   67.0   67.0   62.5  30.124  0.00  0.00     0     0.00      0     0.0  0.00   0.0   0.000   0.100   79.9    27   42.9   77.6   0.005   673    2    100.0   30 
 6/27/17  2:30a   69.9   70.0   69.7    39   43.8   5.0   WSW   2.50  12.0     W   69.9   67.1   67.1   62.6  30.117  0.00  0.00     0     0.00      0     0.0  0.00   0.0   0.000   0.102   79.7    28   43.7   77.6   0.000   682    2    100.0   30 
 6/27/17  3:00a   68.7   69.9   68.7    42   44.7   5.0     W   2.50  13.0     W   68.7   66.5   66.5   62.1  30.115  0.00  0.00     0     0.00      0     0.0  0.00   0.0   0.000   0.077   79.5    28   43.5   77.4   0.004   685    2    100.0   30 
 6/27/17  3:30a   67.7   68.6   67.7    43   44.4   1.0     W   0.50   6.0     W   67.7   65.6   65.6   61.2  30.112  0.00  0.00     0     0.00      0     0.0  0.00   0.0   0.000   0.056   79.3    29   44.3   77.3   0.000   670    2    100.0   30 
 6/27/17  4:00a   62.9   67.8   62.9    49   43.4   0.0     W   0.00   4.0     W   62.9   60.9   60.9   56.4  30.110  0.00  0.00     0     0.00      0     0.0  0.00   0.0   0.044   0.000   79.2    29   44.2   77.3   0.002   685    2    100.0   30 
 6/27/17  4:30a   61.6   62.9   61.4    51   43.3   0.0   ---   0.00   0.0   ---   61.6   59.7   59.7   55.2  30.114  0.00  0.00     0     0.00      0     0.0  0.00   0.0   0.071   0.000   79.0    29   44.0   77.1   0.000   681    2    100.0   30 
 6/27/17  5:00a   61.2   62.2   60.9    57   45.8   0.0   ---   0.00   0.0   ---   61.2   59.8   59.8   55.4  30.117  0.00  0.00     0     0.00      0     0.0  0.00   0.0   0.079   0.000   78.8    30   44.7   77.0   0.002   673    2    100.0   30 
 6/27/17  5:30a   58.6   61.5   58.6    59   44.3   0.0   ---   0.00   0.0   ---   58.6   57.2   57.2   52.8  30.121  0.00  0.00     0     0.00      0     0.0  0.00   0.0   0.133   0.000   78.4    30   44.4   76.7   0.000   684    2    100.0   30 
 6/27/17  6:00a   56.8   59.0   56.8    64   44.7   0.0   ---   0.00   0.0   ---   56.8   55.7   55.7   51.3  30.121  0.00  0.00     2     0.09      7     0.0  0.00   0.0   0.171   0.000   78.2    31   45.1   76.6   0.000   674    2    100.0   30 
 6/27/17  6:30a   58.9   59.3   56.8    61   45.5   0.0   ---   0.00   0.0   ---   58.9   57.7   57.7   53.6  30.126  0.00  0.00    12     0.52     16     0.0  0.00   0.0   0.127   0.000   77.9    31   44.8   76.4   0.000   675    2    100.0   30 
 6/27/17  7:00a   61.1   61.1   58.6    59   46.7   0.0   ---   0.00   0.0   ---   61.1   59.8   59.8   58.0  30.125  0.00  0.00    20     0.86     23     0.0  0.00   0.0   0.081   0.000   77.7    32   45.5   76.3   0.001   680    2    100.0   30 
 6/27/17  7:30a   66.4   66.4   61.1    52   48.2   0.0   ---   0.00   0.0   ---   66.4   65.1   65.1   65.9  30.126  0.00  0.00    83     3.57    246     0.0  0.00   0.5   0.000   0.029   77.7    32   45.5   76.3   0.000   679    2    100.0   30 
 6/27/17  8:00a   71.2   71.4   66.5    46   49.4   0.0     W   0.00   3.0     W   71.2   69.5   69.5   76.4  30.124  0.00  0.00   297    12.77    343     0.6  0.10   1.0   0.000   0.129   77.7    33   46.3   76.4   0.005   675    2    100.0   30 
 6/27/17  8:30a   72.8   72.9   71.1    43   49.0   1.0     W   0.50   7.0     W   72.8   71.6   71.6   79.7  30.122  0.00  0.00   391    16.82    439     1.4  0.22   1.9   0.000   0.163   78.0    34   47.4   76.6   0.000   685    2    100.0   30 
 6/27/17  9:00a   73.9   73.9   72.6    41   48.7   4.0   NNW   2.00  10.0    NW   73.9   73.0   73.0   82.0  30.115  0.00  0.00   491    21.12    540     2.4  0.39   3.0   0.000   0.185   78.0    34   47.4   76.6   0.012   672    2    100.0   30 
 6/27/17  9:30a   75.9   75.9   73.9    38   48.5   4.0   NNW   2.00  13.0   NNW   75.9   74.9   74.9   84.3  30.113  0.00  0.00   586    25.20    631     3.6  0.58   4.2   0.000   0.227   78.2    35   48.3   76.9   0.000   680    2    100.0   30 
 6/27/17 10:00a   76.1   76.4   75.7    36   47.2   6.0   NNW   3.00  14.0   NNW   76.1   75.0   75.0   84.6  30.113  0.00  0.00   671    28.86    710     5.0  0.80   5.7   0.000   0.231   78.4    33   46.9   77.0   0.018   685    2    100.0   30 
 6/27/17 10:30a   77.5   77.5   76.1    32   45.3   8.0   NNW   4.00  16.0   NNW   77.0   76.2   75.7   84.8  30.112  0.00  0.00   750    32.25    786     6.4  1.03   7.1   0.000   0.260   78.6    31   45.4   77.0   0.000   668    2    100.0   30 
 6/27/17 11:00a   79.0   79.0   77.5    31   45.8   8.0   NNW   4.00  15.0   NNW   78.6   77.3   76.9   86.1  30.108  0.00  0.00   818    35.18    846     7.8  1.25   8.4   0.000   0.292   78.8    31   45.6   77.1   0.025   683    2    100.0   30 
 6/27/17 11:30a   80.4   80.5   79.0    30   46.1  11.0   NNW   5.50  18.0   NNW   78.5   78.4   76.5   84.7  30.101  0.00  0.00   874    37.59    895     9.0  1.45   9.5   0.000   0.321   79.2    30   45.1   77.4   0.000   678    2    100.0   30